createdAt,value
2017-12-02T00:00:48.874Z,20.45
2017-12-02T00:03:17.051Z,19.83
2017-12-02T00:05:45.124Z,21.37
2017-12-02T00:08:13.963Z,20.70
2017-12-02T00:10:42.043Z,18.92
2017-12-02T00:13:10.132Z,19.27
2017-12-02T00:15:38.607Z,18.98
2017-12-02T00:18:07.075Z,17.02
2017-12-02T00:20:45.183Z,19.17
2017-12-02T00:23:13.271Z,18.95
2017-12-02T00:25:41.345Z,16.70
2017-12-02T00:28:09.418Z,24.63
2017-12-02T00:30:37.506Z,18.52
2017-12-02T00:33:06.373Z,16.35
2017-12-02T00:35:34.450Z,18.40
2017-12-02T00:38:02.525Z,17.58
2017-12-02T00:40:31.373Z,17.80
2017-12-02T00:42:59.447Z,17.35
2017-12-02T00:45:27.530Z,17.90
2017-12-02T00:47:55.617Z,17.30
2017-12-02T00:50:24.080Z,18.80
2017-12-02T00:52:52.163Z,17.73
2017-12-02T00:55:20.268Z,17.48
2017-12-02T00:57:49.098Z,17.98
2017-12-02T01:00:17.171Z,17.25
2017-12-02T01:02:45.244Z,17.98
2017-12-02T01:05:13.425Z,18.60
2017-12-02T01:07:41.512Z,18.75
2017-12-02T01:10:09.584Z,20.15
2017-12-02T01:12:38.009Z,19.62
2017-12-02T01:15:06.071Z,18.48
2017-12-02T01:17:34.165Z,19.98
2017-12-02T01:20:02.616Z,17.40
2017-12-02T01:22:30.692Z,18.42
2017-12-02T01:24:58.760Z,19.55
2017-12-02T01:27:26.844Z,17.90
2017-12-02T01:29:54.897Z,16.50
2017-12-02T01:32:22.978Z,18.08
2017-12-02T01:34:51.086Z,17.23
2017-12-02T01:37:19.159Z,17.55
2017-12-02T01:39:47.256Z,17.12
2017-12-02T01:42:15.386Z,17.05
2017-12-02T01:44:43.455Z,17.95
2017-12-02T01:47:11.519Z,18.15
2017-12-02T01:49:39.591Z,18.12
2017-12-02T01:52:07.665Z,17.65
2017-12-02T01:54:35.738Z,19.55
2017-12-02T01:57:03.826Z,17.30
2017-12-02T01:59:31.918Z,17.08
2017-12-02T02:02:00.280Z,17.73
2017-12-02T02:04:28.385Z,16.85
2017-12-02T02:06:57.232Z,17.33
2017-12-02T02:09:25.329Z,17.52
2017-12-02T02:11:53.892Z,17.37
2017-12-02T02:14:21.961Z,18.77
2017-12-02T02:16:50.035Z,16.35
2017-12-02T02:19:18.116Z,18.75
2017-12-02T02:21:46.187Z,18.70
2017-12-02T02:24:14.317Z,17.87
2017-12-02T02:26:42.427Z,18.02
2017-12-02T02:29:10.517Z,19.25
2017-12-02T02:31:39.392Z,18.77
2017-12-02T02:34:07.480Z,18.80
2017-12-02T02:36:36.343Z,19.25
2017-12-02T02:39:04.532Z,21.65
2017-12-02T02:41:32.619Z,18.62
2017-12-02T02:44:02.096Z,18.92
2017-12-02T02:46:30.188Z,17.27
2017-12-02T02:48:59.723Z,18.23
2017-12-02T02:51:27.793Z,20.40
2017-12-02T02:53:55.888Z,20.73
2017-12-02T02:56:23.977Z,20.20
2017-12-02T02:58:52.154Z,20.05
2017-12-02T03:01:20.338Z,20.27
2017-12-02T03:03:48.399Z,20.35
2017-12-02T03:06:16.470Z,18.37
2017-12-02T03:08:44.540Z,19.65
2017-12-02T03:11:12.730Z,20.02
2017-12-02T03:13:42.646Z,19.35
2017-12-02T03:16:10.735Z,20.55
2017-12-02T03:18:38.805Z,20.17
2017-12-02T03:21:06.884Z,19.85
2017-12-02T03:23:34.954Z,17.20
2017-12-02T03:26:03.121Z,21.40
2017-12-02T03:28:31.235Z,18.98
2017-12-02T03:30:59.308Z,18.98
2017-12-02T03:33:27.379Z,20.70
2017-12-02T03:35:55.467Z,19.20
2017-12-02T03:38:23.557Z,20.20
2017-12-02T03:40:52.390Z,21.23
2017-12-02T03:43:20.462Z,21.08
2017-12-02T03:45:48.532Z,19.73
2017-12-02T03:48:16.648Z,19.60
2017-12-02T03:50:44.716Z,21.77
2017-12-02T03:53:12.816Z,19.50
2017-12-02T03:55:41.654Z,20.80
2017-12-02T03:58:09.728Z,20.92
2017-12-02T04:00:37.819Z,20.15
2017-12-02T04:03:05.894Z,19.98
2017-12-02T04:05:34.730Z,20.58
2017-12-02T04:08:02.804Z,19.40
2017-12-02T04:10:30.869Z,19.60
2017-12-02T04:12:58.943Z,19.15
2017-12-02T04:15:27.002Z,19.87
2017-12-02T04:17:55.070Z,22.02
2017-12-02T04:20:23.216Z,17.85
2017-12-02T04:22:52.056Z,20.98
2017-12-02T04:25:20.142Z,18.12
2017-12-02T04:27:48.220Z,20.85
2017-12-02T04:30:16.285Z,18.90
2017-12-02T04:32:44.360Z,19.80
2017-12-02T04:35:12.429Z,20.23
2017-12-02T04:37:40.504Z,18.05
2017-12-02T04:40:08.854Z,18.55
2017-12-02T04:42:36.931Z,18.75
2017-12-02T04:45:05.016Z,19.70
2017-12-02T04:47:33.099Z,19.33
2017-12-02T04:50:01.165Z,20.23
2017-12-02T04:52:29.255Z,18.80
2017-12-02T04:54:58.098Z,20.67
2017-12-02T04:57:26.187Z,20.02
2017-12-02T04:59:54.287Z,21.12
2017-12-02T05:02:23.177Z,21.15
2017-12-02T05:04:52.017Z,21.40
2017-12-02T05:07:20.091Z,21.62
2017-12-02T05:09:48.161Z,21.95
2017-12-02T05:12:16.239Z,22.10
2017-12-02T05:14:44.313Z,21.27
2017-12-02T05:17:12.406Z,22.70
2017-12-02T05:19:40.477Z,20.17
2017-12-02T05:22:08.734Z,20.73
2017-12-02T05:24:36.812Z,21.25
2017-12-02T05:27:04.987Z,22.15
2017-12-02T05:29:33.084Z,23.02
2017-12-02T05:32:01.910Z,21.25
2017-12-02T05:34:29.982Z,21.37
2017-12-02T05:36:58.049Z,22.65
2017-12-02T05:39:26.143Z,23.65
2017-12-02T05:41:54.198Z,21.55
2017-12-02T05:44:22.293Z,19.55
2017-12-02T05:46:50.371Z,20.42
2017-12-02T05:49:18.442Z,21.02
2017-12-02T05:51:46.513Z,21.23
2017-12-02T05:54:14.592Z,19.37
2017-12-02T05:56:42.683Z,21.20
2017-12-02T05:59:11.530Z,20.42
2017-12-02T06:01:39.607Z,20.48
2017-12-02T06:04:07.683Z,21.73
2017-12-02T06:06:35.741Z,23.02
2017-12-02T06:09:03.811Z,22.60
2017-12-02T06:11:31.884Z,20.88
2017-12-02T06:14:00.717Z,22.15
2017-12-02T06:16:28.804Z,22.20
2017-12-02T06:18:57.433Z,23.60
2017-12-02T06:21:25.493Z,19.80
2017-12-02T06:23:53.578Z,22.98
2017-12-02T06:26:21.634Z,23.45
2017-12-02T06:28:49.716Z,22.42
2017-12-02T06:31:17.941Z,21.80
2017-12-02T06:33:46.021Z,22.23
2017-12-02T06:36:14.111Z,20.98
2017-12-02T06:38:42.206Z,20.35
2017-12-02T06:41:10.284Z,20.33
2017-12-02T06:43:38.360Z,23.48
2017-12-02T06:46:06.435Z,21.25
2017-12-02T06:48:35.293Z,21.30
2017-12-02T06:51:04.212Z,20.48
2017-12-02T06:53:32.258Z,21.60
2017-12-02T06:56:00.332Z,20.17
2017-12-02T06:58:28.416Z,19.17
2017-12-02T07:00:56.481Z,19.80
2017-12-02T07:03:24.554Z,21.17
2017-12-02T07:05:52.621Z,21.85
2017-12-02T07:08:20.685Z,18.62
2017-12-02T07:10:48.759Z,20.05
2017-12-02T07:13:16.829Z,19.40
2017-12-02T07:15:44.899Z,22.23
2017-12-02T07:18:12.982Z,20.05
2017-12-02T07:20:41.051Z,19.40
2017-12-02T07:23:09.121Z,19.60
2017-12-02T07:25:37.199Z,20.20
2017-12-02T07:28:06.048Z,19.77
2017-12-02T07:30:34.118Z,21.25
2017-12-02T07:33:02.191Z,20.40
2017-12-02T07:35:30.273Z,21.02
2017-12-02T07:37:58.342Z,25.10
2017-12-02T07:40:26.514Z,20.48
2017-12-02T07:42:54.572Z,20.20
2017-12-02T07:45:22.652Z,20.30
2017-12-02T07:47:50.714Z,20.10
2017-12-02T07:50:18.791Z,21.83
2017-12-02T07:52:46.865Z,19.62
2017-12-02T07:55:15.105Z,18.20
2017-12-02T07:57:43.182Z,20.05
2017-12-02T08:00:11.968Z,20.85
2017-12-02T08:02:40.040Z,19.70
2017-12-02T08:05:08.114Z,20.80
2017-12-02T08:07:36.186Z,19.55
2017-12-02T08:10:04.255Z,20.00
2017-12-02T08:12:32.348Z,19.58
2017-12-02T08:15:00.423Z,19.65
2017-12-02T08:17:28.607Z,18.60
2017-12-02T08:19:56.792Z,20.37
2017-12-02T08:22:24.873Z,20.08
2017-12-02T08:24:53.812Z,18.50
2017-12-02T08:27:21.909Z,20.27
2017-12-02T08:29:50.970Z,19.08
2017-12-02T08:32:19.727Z,19.42
2017-12-02T08:34:47.807Z,20.58
2017-12-02T08:37:15.911Z,19.23
2017-12-02T08:39:53.879Z,19.62
2017-12-02T08:42:21.973Z,19.40
2017-12-02T08:44:50.061Z,19.98
2017-12-02T08:47:18.138Z,21.37
2017-12-02T08:49:46.225Z,20.77
2017-12-02T08:52:14.312Z,20.37
2017-12-02T08:54:43.338Z,19.37
2017-12-02T08:57:11.399Z,19.17
2017-12-02T08:59:39.470Z,19.23
2017-12-02T09:02:07.539Z,20.12
2017-12-02T09:04:35.673Z,19.35
2017-12-02T09:07:04.534Z,20.37
2017-12-02T09:09:32.616Z,18.23
2017-12-02T09:12:00.704Z,19.65
2017-12-02T09:14:28.790Z,18.55
2017-12-02T09:16:57.634Z,17.12
2017-12-02T09:19:25.732Z,18.45
2017-12-02T09:21:53.798Z,19.20
2017-12-02T09:24:21.940Z,16.83
2017-12-02T09:26:50.028Z,18.02
2017-12-02T09:29:19.112Z,17.58
2017-12-02T09:31:47.215Z,16.75
2017-12-02T09:34:15.299Z,16.35
2017-12-02T09:36:44.181Z,16.30
2017-12-02T09:39:14.006Z,16.57
2017-12-02T09:41:42.888Z,16.10
2017-12-02T09:44:11.735Z,17.27
2017-12-02T09:46:39.807Z,15.97
2017-12-02T09:49:07.895Z,14.73
2017-12-02T09:51:35.973Z,15.60
2017-12-02T09:54:04.064Z,17.03
2017-12-02T09:56:32.924Z,16.40
2017-12-02T09:59:00.993Z,15.97
2017-12-02T10:01:29.066Z,16.33
2017-12-02T10:03:57.140Z,17.00
2017-12-02T10:06:25.225Z,16.40
2017-12-02T10:08:53.396Z,16.53
2017-12-02T10:11:21.573Z,15.13
2017-12-02T10:13:49.737Z,14.07
2017-12-02T10:16:17.817Z,13.13
2017-12-02T10:18:45.988Z,15.07
2017-12-02T10:21:14.847Z,25.13
2017-12-02T10:23:42.936Z,76.07
2017-12-02T10:26:11.015Z,20.27
2017-12-02T10:28:39.081Z,15.60
2017-12-02T10:31:07.154Z,15.70
2017-12-02T10:33:35.245Z,17.50
2017-12-02T10:36:04.096Z,27.20
2017-12-02T10:38:32.183Z,13.20
2017-12-02T10:41:00.894Z,15.70
2017-12-02T10:43:29.756Z,14.53
2017-12-02T10:45:57.856Z,14.93
2017-12-02T10:48:25.996Z,18.17
2017-12-02T10:50:54.069Z,16.20
2017-12-02T10:53:22.156Z,15.20
2017-12-02T10:55:51.016Z,15.40
2017-12-02T10:58:19.116Z,13.53
2017-12-02T11:00:47.952Z,15.27
2017-12-02T11:03:16.043Z,12.73
2017-12-02T11:05:44.122Z,13.13
2017-12-02T11:08:12.295Z,13.33
2017-12-02T11:10:40.371Z,15.03
2017-12-02T11:13:08.544Z,14.37
2017-12-02T11:15:36.618Z,13.90
2017-12-02T11:18:04.690Z,12.40
2017-12-02T11:20:32.784Z,14.27
2017-12-02T11:23:02.357Z,14.70
2017-12-02T11:25:30.434Z,15.00
2017-12-02T11:27:58.706Z,15.30
2017-12-02T11:30:26.880Z,14.53
2017-12-02T11:32:55.049Z,14.90
2017-12-02T11:35:23.127Z,14.87
2017-12-02T11:37:51.199Z,14.00
2017-12-02T11:40:20.912Z,14.40
2017-12-02T11:42:49.954Z,11.00
2017-12-02T11:45:18.028Z,12.77
2017-12-02T11:47:46.111Z,12.63
2017-12-02T11:50:14.194Z,13.77
2017-12-02T11:52:42.285Z,14.30
2017-12-02T11:55:11.140Z,15.95
2017-12-02T11:57:39.281Z,17.95
2017-12-02T12:00:07.368Z,15.95
2017-12-02T12:02:35.778Z,18.55
2017-12-02T12:05:03.884Z,17.00
2017-12-02T12:07:32.723Z,15.20
2017-12-02T12:10:00.799Z,15.10
2017-12-02T12:12:28.878Z,16.10
2017-12-02T12:14:56.944Z,14.47
2017-12-02T12:17:25.017Z,14.90
2017-12-02T12:19:53.081Z,14.60
2017-12-02T12:22:21.281Z,11.47
2017-12-02T12:24:49.353Z,11.70
2017-12-02T12:27:18.197Z,11.90
2017-12-02T12:29:46.267Z,11.53
2017-12-02T12:32:14.340Z,11.83
2017-12-02T12:34:42.405Z,13.30
2017-12-02T12:37:10.484Z,15.10
2017-12-02T12:39:39.007Z,12.70
2017-12-02T12:42:07.851Z,13.93
2017-12-02T12:44:35.932Z,15.13
2017-12-02T12:47:04.050Z,15.03
2017-12-02T12:49:32.092Z,15.17
2017-12-02T12:52:00.157Z,15.63
2017-12-02T12:54:28.253Z,15.10
2017-12-02T12:56:57.103Z,13.68
2017-12-02T12:59:25.174Z,14.20
2017-12-02T13:01:53.256Z,13.25
2017-12-02T13:04:21.334Z,12.50
2017-12-02T13:06:49.508Z,13.27
2017-12-02T13:09:17.566Z,13.07
2017-12-02T13:11:45.638Z,12.98
2017-12-02T13:14:13.706Z,12.57
2017-12-02T13:16:41.774Z,11.57
2017-12-02T13:19:09.862Z,11.90
2017-12-02T13:21:39.068Z,12.85
2017-12-02T13:24:07.154Z,12.45
2017-12-02T13:26:35.995Z,13.52
2017-12-02T13:29:04.085Z,13.50
2017-12-02T13:31:32.138Z,13.60
2017-12-02T13:34:00.216Z,15.07
2017-12-02T13:36:28.299Z,13.23
2017-12-02T13:38:57.271Z,15.30
2017-12-02T13:41:25.493Z,13.50
2017-12-02T13:43:54.349Z,13.15
2017-12-02T13:46:22.426Z,14.70
2017-12-02T13:48:50.496Z,13.73
2017-12-02T13:51:18.578Z,12.57
2017-12-02T13:53:47.446Z,13.52
2017-12-02T13:56:15.509Z,13.23
2017-12-02T13:58:43.582Z,13.40
2017-12-02T14:01:11.662Z,14.00
2017-12-02T14:03:39.740Z,14.02
2017-12-02T14:06:08.600Z,14.57
2017-12-02T14:08:36.683Z,14.60
2017-12-02T14:11:04.752Z,13.62
2017-12-02T14:13:32.822Z,13.65
2017-12-02T14:16:00.908Z,15.20
2017-12-02T14:18:28.993Z,14.05
2017-12-02T14:20:57.500Z,14.32
2017-12-02T14:23:25.635Z,13.95
2017-12-02T14:25:53.707Z,13.93
2017-12-02T14:28:21.783Z,17.40
2017-12-02T14:30:51.177Z,16.05
2017-12-02T14:33:19.279Z,15.00
2017-12-02T14:35:49.036Z,14.55
2017-12-02T14:38:17.106Z,15.43
2017-12-02T14:40:45.180Z,15.55
2017-12-02T14:43:16.225Z,14.93
2017-12-02T14:45:44.291Z,13.80
2017-12-02T14:48:12.376Z,15.35
2017-12-02T14:50:41.014Z,15.60
2017-12-02T14:53:09.101Z,13.05
2017-12-02T14:55:37.173Z,13.60
2017-12-02T14:58:05.254Z,13.45
2017-12-02T15:00:33.340Z,13.55
2017-12-02T15:03:01.401Z,13.02
2017-12-02T15:05:29.470Z,13.50
2017-12-02T15:07:57.566Z,14.27
2017-12-02T15:10:25.638Z,12.13
2017-12-02T15:12:53.780Z,13.40
2017-12-02T15:15:21.976Z,13.25
2017-12-02T15:17:50.056Z,13.82
2017-12-02T15:20:18.122Z,13.90
2017-12-02T15:22:46.204Z,13.55
2017-12-02T15:25:15.067Z,13.05
2017-12-02T15:27:43.135Z,12.80
2017-12-02T15:30:11.220Z,15.23
2017-12-02T15:32:39.292Z,12.65
2017-12-02T15:35:07.382Z,13.50
2017-12-02T15:37:36.217Z,15.35
2017-12-02T15:40:04.311Z,13.93
2017-12-02T15:42:32.393Z,13.57
2017-12-02T15:45:00.463Z,15.13
2017-12-02T15:47:28.539Z,14.20
2017-12-02T15:49:56.705Z,14.60
2017-12-02T15:52:24.778Z,15.80
2017-12-02T15:55:04.105Z,14.13
2017-12-02T15:57:32.271Z,14.80
2017-12-02T16:00:01.188Z,14.40
2017-12-02T16:02:30.128Z,16.62
2017-12-02T16:04:58.222Z,15.85
2017-12-02T16:07:26.294Z,15.20
2017-12-02T16:09:54.383Z,16.02
2017-12-02T16:12:22.438Z,15.27
2017-12-02T16:14:50.506Z,16.45
2017-12-02T16:17:18.589Z,15.52
2017-12-02T16:19:46.690Z,15.65
2017-12-02T16:22:15.527Z,16.42
2017-12-02T16:24:54.335Z,19.42
2017-12-02T16:27:22.426Z,19.02
2017-12-02T16:29:50.492Z,17.15
2017-12-02T16:32:18.549Z,16.08
2017-12-02T16:34:46.637Z,17.50
2017-12-02T16:37:14.694Z,15.27
2017-12-02T16:39:42.777Z,16.35
2017-12-02T16:42:10.841Z,14.23
2017-12-02T16:45:00.446Z,14.25
2017-12-02T16:47:30.045Z,14.85
2017-12-02T16:49:58.462Z,14.20
2017-12-02T16:52:26.567Z,13.70
2017-12-02T16:54:55.607Z,14.60
2017-12-02T16:57:23.679Z,12.07
2017-12-02T16:59:52.652Z,12.15
2017-12-02T17:02:20.824Z,13.35
2017-12-02T17:04:52.233Z,12.48
2017-12-02T17:07:20.359Z,13.07
2017-12-02T17:09:48.413Z,12.98
2017-12-02T17:12:16.485Z,13.27
2017-12-02T17:14:44.575Z,12.65
2017-12-02T17:17:16.952Z,12.98
2017-12-02T17:19:45.780Z,12.13
2017-12-02T17:22:13.885Z,12.43
2017-12-02T17:24:44.887Z,12.32
2017-12-02T17:27:13.270Z,13.43
2017-12-02T17:29:41.363Z,13.88
2017-12-02T17:32:13.670Z,14.65
2017-12-02T17:34:43.253Z,13.82
2017-12-02T17:37:11.332Z,14.00
2017-12-02T17:39:40.185Z,13.70
2017-12-02T17:42:10.918Z,13.48
2017-12-02T17:44:45.950Z,13.00
2017-12-02T17:47:14.038Z,14.50
2017-12-02T17:49:42.452Z,15.15
2017-12-02T17:52:11.296Z,14.77
2017-12-02T17:54:39.365Z,15.20
2017-12-02T17:57:07.427Z,17.52
2017-12-02T17:59:35.512Z,16.23
2017-12-02T18:02:03.577Z,15.82
2017-12-02T18:04:31.665Z,14.40
2017-12-02T18:06:59.729Z,17.20
2017-12-02T18:09:27.811Z,16.30
2017-12-02T18:11:56.694Z,16.42
2017-12-02T18:14:24.767Z,15.20
2017-12-02T18:16:52.939Z,16.08
2017-12-02T18:19:21.028Z,16.90
2017-12-02T18:21:49.877Z,15.95
2017-12-02T18:24:17.948Z,16.85
2017-12-02T18:26:46.023Z,18.73
2017-12-02T18:29:14.095Z,19.12
2017-12-02T18:31:42.167Z,18.27
2017-12-02T18:34:11.026Z,18.40
2017-12-02T18:36:39.098Z,21.98
2017-12-02T18:39:07.166Z,18.65
2017-12-02T18:41:35.243Z,20.50
2017-12-02T18:44:03.890Z,20.60
2017-12-02T18:46:32.723Z,19.15
2017-12-02T18:49:00.792Z,19.55
2017-12-02T18:51:28.850Z,20.90
2017-12-02T18:53:56.908Z,21.17
2017-12-02T18:56:24.981Z,22.45
2017-12-02T18:58:53.075Z,22.15
2017-12-02T19:01:21.147Z,22.27
2017-12-02T19:03:49.248Z,21.77
2017-12-02T19:06:17.339Z,22.15
2017-12-02T19:08:46.169Z,22.62
2017-12-02T19:11:14.235Z,23.90
2017-12-02T19:13:42.303Z,21.98
2017-12-02T19:16:10.384Z,22.17
2017-12-02T19:18:38.452Z,19.37
2017-12-02T19:21:06.555Z,22.00
2017-12-02T19:23:34.726Z,21.48
2017-12-02T19:26:02.797Z,23.70
2017-12-02T19:28:30.878Z,21.35
2017-12-02T19:30:58.939Z,21.05
2017-12-02T19:33:27.015Z,23.30
2017-12-02T19:35:55.078Z,37.67
2017-12-02T19:38:23.151Z,21.77
2017-12-02T19:40:51.329Z,23.15
2017-12-02T19:43:19.496Z,23.45
2017-12-02T19:45:47.571Z,26.55
2017-12-02T19:48:15.945Z,26.25
2017-12-02T19:50:44.015Z,55.12
2017-12-02T19:53:12.503Z,25.90
2017-12-02T19:55:40.568Z,29.50
2017-12-02T19:58:08.639Z,23.25
2017-12-02T20:00:40.371Z,23.75
2017-12-02T20:03:08.443Z,24.17
2017-12-02T20:05:36.701Z,23.08
2017-12-02T20:08:04.795Z,24.35
2017-12-02T20:10:32.872Z,25.67
2017-12-02T20:13:00.982Z,22.73
2017-12-02T20:15:29.841Z,25.90
2017-12-02T20:17:57.932Z,24.55
2017-12-02T20:20:26.780Z,25.12
2017-12-02T20:22:54.845Z,24.83
2017-12-02T20:25:23.113Z,25.42
2017-12-02T20:27:51.228Z,25.30
2017-12-02T20:30:19.306Z,27.27
2017-12-02T20:32:47.515Z,26.25
2017-12-02T20:35:15.578Z,26.00
2017-12-02T20:37:43.659Z,28.00
2017-12-02T20:40:11.734Z,25.15
2017-12-02T20:42:39.796Z,28.33
2017-12-02T20:45:07.897Z,28.80
2017-12-02T20:47:35.950Z,27.42
2017-12-02T20:50:04.064Z,26.85
2017-12-02T20:52:32.136Z,28.50
2017-12-02T20:55:00.220Z,24.52
2017-12-02T20:57:29.048Z,27.13
2017-12-02T20:59:57.125Z,27.25
2017-12-02T21:02:25.193Z,25.95
2017-12-02T21:04:53.316Z,25.00
2017-12-02T21:07:22.212Z,26.02
2017-12-02T21:09:51.089Z,28.75
2017-12-02T21:12:19.152Z,28.67
2017-12-02T21:14:47.243Z,28.30
2017-12-02T21:17:16.080Z,25.08
2017-12-02T21:19:44.159Z,25.50
2017-12-02T21:22:12.247Z,26.33
2017-12-02T21:24:40.423Z,26.35
2017-12-02T21:27:08.590Z,24.35
2017-12-02T21:29:36.680Z,25.25
2017-12-02T21:32:04.761Z,23.23
2017-12-02T21:34:33.582Z,24.83
2017-12-02T21:37:01.667Z,25.33
2017-12-02T21:39:29.746Z,18.30
2017-12-02T21:41:57.801Z,16.60
2017-12-02T21:44:25.885Z,17.85
2017-12-02T21:46:53.949Z,17.33
2017-12-02T21:49:22.005Z,17.15
2017-12-02T21:51:50.097Z,15.95
2017-12-02T21:54:19.161Z,15.82
2017-12-02T21:56:47.181Z,15.18
2017-12-02T21:59:15.245Z,15.50
2017-12-02T22:01:43.431Z,16.10
2017-12-02T22:04:11.518Z,15.90
2017-12-02T22:06:40.565Z,15.90
2017-12-02T22:09:08.660Z,14.95
2017-12-02T22:11:36.821Z,15.52
2017-12-02T22:14:04.894Z,14.90
2017-12-02T22:16:32.976Z,16.08
2017-12-02T22:19:01.034Z,14.13
2017-12-02T22:21:29.115Z,15.10
2017-12-02T22:23:57.178Z,15.25
2017-12-02T22:26:25.266Z,16.25
2017-12-02T22:28:53.361Z,16.23
2017-12-02T22:31:22.187Z,14.57
2017-12-02T22:33:50.255Z,15.75
2017-12-02T22:36:18.343Z,15.90
2017-12-02T22:38:46.414Z,13.35
2017-12-02T22:41:14.483Z,15.77
2017-12-02T22:43:42.555Z,15.73
2017-12-02T22:46:10.626Z,14.70
2017-12-02T22:48:38.706Z,16.62
2017-12-02T22:51:06.768Z,14.70
2017-12-02T22:53:34.848Z,14.35
2017-12-02T22:56:02.918Z,16.52
2017-12-02T22:58:31.028Z,15.90
2017-12-02T23:00:59.857Z,14.57
2017-12-02T23:03:27.947Z,15.73
2017-12-02T23:05:56.018Z,16.45
2017-12-02T23:08:24.087Z,15.45
2017-12-02T23:10:52.164Z,16.05
2017-12-02T23:13:20.227Z,16.12
2017-12-02T23:15:49.203Z,17.70
2017-12-02T23:18:17.278Z,14.73
2017-12-02T23:20:49.429Z,16.85
2017-12-02T23:23:17.533Z,16.40
2017-12-02T23:25:45.707Z,17.02
2017-12-02T23:28:14.695Z,18.83
2017-12-02T23:30:42.753Z,16.85
2017-12-02T23:33:10.818Z,16.62
2017-12-02T23:35:38.890Z,17.25
2017-12-02T23:38:06.991Z,17.85
2017-12-02T23:40:35.093Z,16.98
2017-12-02T23:43:03.938Z,19.12
2017-12-02T23:45:32.115Z,18.80
2017-12-02T23:48:00.272Z,18.35
2017-12-02T23:50:28.655Z,18.55
2017-12-02T23:52:56.983Z,21.40
2017-12-02T23:55:25.960Z,20.15
2017-12-02T23:57:54.074Z,21.40
